Whitehorse, South Dakota
Current Conditions -  °F | °C
As of 2:52 AM on Monday 22 Dec 2014 (Local Time) from KMBG Reporting Station
Haze Haze  
Wind Chill: 29°   Ceiling: 800
Heat Index: 29°   Visibility: 5mi
Dew Point: 28°   Wind: 0mph
Humidity: 96%   Direction: NA
Pressure: 29.41"   Gusts: NA
Location:  45.27°N, 100.89°W
Report Text: KMBG 220952Z AUTO 00000KT 5SM BR OVC008 M02/M02 A2941 RMK AO2 SLP972 T10171022
Loading
Personal Weather Stations






























Interactive Weather Map New forecast layout! Learn more

10-Day Weather Forecast

Advertisements
Track Severe Weather on mobile